This is the latest recevied weather packets stored in our database for station/object EA1ZE. If no packets are shown the sender has not sent any weather packets the latest 10 day(s).
| Time | Temp. | Humidity | Pressure | Rain* | Wind** | Luminosity | Snow |
|---|---|---|---|---|---|---|---|
| 1777913168 | 13.33° C | 69% | 1010.9 hPa | 0.51 mm | - | - | - |
| 1777912257 | 12.78° C | 73% | 1010.9 hPa | 0.76 mm | - | - | - |
| 1777911358 | 12.22° C | 77% | 1010.9 hPa | 0.76 mm | - | - | - |
| 1777910458 | 11.67° C | 80% | 1011.2 hPa | 0.76 mm | - | - | - |
| 1777909563 | 12.22° C | 81% | 1011.1 hPa | 0.51 mm | - | - | - |
| 1777908653 | 11.67° C | 78% | 1011.2 hPa | 0 mm | - | - | - |
| 1777907754 | 12.22° C | 74% | 1011.1 hPa | 0 mm | - | - | - |
| 1777906853 | 13.33° C | 64% | 1011.3 hPa | 0 mm | - | - | - |
| 1777905950 | 15.56° C | 57% | 1011.3 hPa | 0 mm | - | - | - |
| 1777905052 | 15.56° C | 56% | 1011.2 hPa | 0 mm | - | - | - |
| 1777904148 | 15° C | 54% | 1010.9 hPa | 0 mm | - | - | - |
| 1777903263 | 16.67° C | 53% | 1011.2 hPa | 0 mm | - | - | - |
| 1777902408 | 16.67° C | 52% | 1011.2 hPa | 0 mm | - | - | - |
| 1777901423 | 16.67° C | 50% | 1011.5 hPa | 0 mm | - | - | - |
| 1777900522 | 16.67° C | 49% | 1011.5 hPa | 0 mm | - | - | - |
| 1777899621 | 16.67° C | 52% | 1011.5 hPa | 0 mm | - | - | - |
| 1777898719 | 15.56° C | 53% | 1011.6 hPa | 0 mm | - | - | - |
| 1777897815 | 16.11° C | 57% | 1011.7 hPa | 0 mm | - | - | - |
| 1777896913 | 15.56° C | 61% | 1011.8 hPa | 0 mm | - | - | - |
| 1777896010 | 15° C | 59% | 1011.9 hPa | 0 mm | - | - | - |
| 1777895190 | 14.44° C | 63% | 1012.1 hPa | 0 mm | - | - | - |
| 1777894313 | 15° C | 60% | 1012.3 hPa | 0 mm | - | - | - |
| 1777893392 | 15° C | 63% | 1012.4 hPa | 0 mm | - | - | - |
| 1777892490 | 13.89° C | 63% | 1012.3 hPa | 0 mm | - | - | - |
| 1777891607 | 13.33° C | 62% | 1012.4 hPa | 0 mm | - | - | - |
* Rain latest hour (hover to see other rain measurements)
** Current wind speed in m/s (hover to see current wind gust speed)